Birkerod, Denmark
Current Conditions -  °F | °C
As of 1:50 PM on Thursday 27 Nov 2014 (Local Time) from EKCH Reporting Station
Scattered Clouds Scattered Clouds  
Wind Chill: 37°   Ceiling: Unl
Heat Index: 45°   Visibility: 6mi
Dew Point: 34°   Wind: 18mph
Humidity: 66%   Direction: 130°SE
Pressure: 30.09"   Gusts: NA
Location:  55.83°N, 12.43°E
Report Text: EKCH 271250Z 13016KT 9999 SCT030 07/01 Q1019 NOSIG
Loading
Personal Weather Stations






























Interactive Weather Map New forecast layout! Learn more

10-Day Weather Forecast

Advertisements
Track Severe Weather on mobile